sensor_id;sensor_type;location;lat;lon;timestamp;temperature;humidity
11423;DHT22;5768;51.476;7.210;2022-11-15T00:01:16;12.70;18.20
11423;DHT22;5768;51.476;7.210;2022-11-15T00:06:21;12.70;18.20
11423;DHT22;5768;51.476;7.210;2022-11-15T00:11:23;12.70;18.30
11423;DHT22;5768;51.476;7.210;2022-11-15T00:16:26;12.80;18.50
11423;DHT22;5768;51.476;7.210;2022-11-15T00:21:30;12.80;18.50
11423;DHT22;5768;51.476;7.210;2022-11-15T00:26:32;12.90;18.60
11423;DHT22;5768;51.476;7.210;2022-11-15T00:31:34;13.10;18.70
11423;DHT22;5768;51.476;7.210;2022-11-15T00:36:37;13.10;18.80
11423;DHT22;5768;51.476;7.210;2022-11-15T00:41:40;13.10;18.80
11423;DHT22;5768;51.476;7.210;2022-11-15T00:46:42;13.20;18.90
11423;DHT22;5768;51.476;7.210;2022-11-15T00:51:46;13.20;18.90
11423;DHT22;5768;51.476;7.210;2022-11-15T00:56:48;13.30;18.90
11423;DHT22;5768;51.476;7.210;2022-11-15T01:01:50;13.40;18.90
11423;DHT22;5768;51.476;7.210;2022-11-15T01:06:54;13.50;18.90
11423;DHT22;5768;51.476;7.210;2022-11-15T01:11:57;13.40;19.00
11423;DHT22;5768;51.476;7.210;2022-11-15T01:16:59;13.40;19.20
11423;DHT22;5768;51.476;7.210;2022-11-15T01:22:03;13.50;19.20
11423;DHT22;5768;51.476;7.210;2022-11-15T01:27:05;13.50;19.20
11423;DHT22;5768;51.476;7.210;2022-11-15T01:32:07;13.60;19.20
11423;DHT22;5768;51.476;7.210;2022-11-15T01:37:10;13.70;19.20
11423;DHT22;5768;51.476;7.210;2022-11-15T01:42:14;13.70;19.10
11423;DHT22;5768;51.476;7.210;2022-11-15T01:47:19;13.80;19.10
11423;DHT22;5768;51.476;7.210;2022-11-15T01:52:27;13.70;19.10
11423;DHT22;5768;51.476;7.210;2022-11-15T01:57:32;13.70;19.20
11423;DHT22;5768;51.476;7.210;2022-11-15T02:02:34;13.70;19.20
11423;DHT22;5768;51.476;7.210;2022-11-15T02:07:40;13.70;19.20
11423;DHT22;5768;51.476;7.210;2022-11-15T02:12:42;13.70;19.20
11423;DHT22;5768;51.476;7.210;2022-11-15T02:18:03;13.90;19.20
11423;DHT22;5768;51.476;7.210;2022-11-15T02:23:37;13.90;19.20
11423;DHT22;5768;51.476;7.210;2022-11-15T02:28:58;14.00;19.00
11423;DHT22;5768;51.476;7.210;2022-11-15T02:34:14;13.80;19.20
11423;DHT22;5768;51.476;7.210;2022-11-15T02:39:33;13.80;19.30
11423;DHT22;5768;51.476;7.210;2022-11-15T02:44:42;13.90;19.10
11423;DHT22;5768;51.476;7.210;2022-11-15T02:49:51;13.90;19.10
11423;DHT22;5768;51.476;7.210;2022-11-15T02:54:55;13.70;19.20
11423;DHT22;5768;51.476;7.210;2022-11-15T03:00:07;13.60;19.40
11423;DHT22;5768;51.476;7.210;2022-11-15T03:05:19;13.50;19.50
11423;DHT22;5768;51.476;7.210;2022-11-15T03:10:35;13.50;19.60
11423;DHT22;5768;51.476;7.210;2022-11-15T03:16:04;13.70;19.50
11423;DHT22;5768;51.476;7.210;2022-11-15T03:21:14;13.80;19.40
11423;DHT22;5768;51.476;7.210;2022-11-15T03:26:23;13.80;19.40
11423;DHT22;5768;51.476;7.210;2022-11-15T03:31:30;13.90;19.30
11423;DHT22;5768;51.476;7.210;2022-11-15T03:36:58;13.90;19.30
11423;DHT22;5768;51.476;7.210;2022-11-15T03:42:08;14.00;19.40
11423;DHT22;5768;51.476;7.210;2022-11-15T03:47:21;14.00;19.40
11423;DHT22;5768;51.476;7.210;2022-11-15T03:52:31;14.00;19.30
11423;DHT22;5768;51.476;7.210;2022-11-15T03:57:35;14.00;19.40
11423;DHT22;5768;51.476;7.210;2022-11-15T04:02:38;14.00;19.40
11423;DHT22;5768;51.476;7.210;2022-11-15T04:07:41;14.10;19.40
11423;DHT22;5768;51.476;7.210;2022-11-15T04:12:45;14.00;19.50
11423;DHT22;5768;51.476;7.210;2022-11-15T04:17:50;14.00;19.50
11423;DHT22;5768;51.476;7.210;2022-11-15T04:22:56;14.10;19.40
11423;DHT22;5768;51.476;7.210;2022-11-15T04:28:17;14.10;19.40
11423;DHT22;5768;51.476;7.210;2022-11-15T04:33:21;14.10;19.40
11423;DHT22;5768;51.476;7.210;2022-11-15T04:38:25;14.10;19.40
11423;DHT22;5768;51.476;7.210;2022-11-15T04:43:27;14.10;19.40
11423;DHT22;5768;51.476;7.210;2022-11-15T04:48:29;14.00;19.40
11423;DHT22;5768;51.476;7.210;2022-11-15T04:53:33;14.10;19.40
11423;DHT22;5768;51.476;7.210;2022-11-15T04:58:35;14.10;19.40
11423;DHT22;5768;51.476;7.210;2022-11-15T05:03:38;14.20;19.40
11423;DHT22;5768;51.476;7.210;2022-11-15T05:08:59;14.20;19.30
11423;DHT22;5768;51.476;7.210;2022-11-15T05:14:02;14.20;19.30
11423;DHT22;5768;51.476;7.210;2022-11-15T05:19:04;14.10;19.40
11423;DHT22;5768;51.476;7.210;2022-11-15T05:24:09;14.20;19.40
11423;DHT22;5768;51.476;7.210;2022-11-15T05:29:12;14.20;19.40
11423;DHT22;5768;51.476;7.210;2022-11-15T05:34:16;14.20;19.40
11423;DHT22;5768;51.476;7.210;2022-11-15T05:39:20;14.20;19.40
11423;DHT22;5768;51.476;7.210;2022-11-15T05:44:23;14.30;19.40
11423;DHT22;5768;51.476;7.210;2022-11-15T05:49:29;14.20;19.40
11423;DHT22;5768;51.476;7.210;2022-11-15T05:54:37;14.30;19.30
11423;DHT22;5768;51.476;7.210;2022-11-15T05:59:41;14.30;19.40
11423;DHT22;5768;51.476;7.210;2022-11-15T06:04:44;14.30;19.50
11423;DHT22;5768;51.476;7.210;2022-11-15T06:09:48;14.30;19.60
11423;DHT22;5768;51.476;7.210;2022-11-15T06:14:50;14.40;19.80
11423;DHT22;5768;51.476;7.210;2022-11-15T06:19:52;14.30;20.00
11423;DHT22;5768;51.476;7.210;2022-11-15T06:24:56;14.30;19.90
11423;DHT22;5768;51.476;7.210;2022-11-15T06:29:58;14.40;20.00
11423;DHT22;5768;51.476;7.210;2022-11-15T06:35:00;14.30;19.90
11423;DHT22;5768;51.476;7.210;2022-11-15T06:40:04;14.30;19.90
11423;DHT22;5768;51.476;7.210;2022-11-15T06:45:08;14.20;19.80
11423;DHT22;5768;51.476;7.210;2022-11-15T06:50:10;14.30;19.60
11423;DHT22;5768;51.476;7.210;2022-11-15T06:55:14;14.30;19.50
11423;DHT22;5768;51.476;7.210;2022-11-15T07:00:17;14.40;19.40
11423;DHT22;5768;51.476;7.210;2022-11-15T07:05:23;14.40;19.20
11423;DHT22;5768;51.476;7.210;2022-11-15T07:10:26;14.40;19.20
11423;DHT22;5768;51.476;7.210;2022-11-15T07:15:29;14.40;19.00
11423;DHT22;5768;51.476;7.210;2022-11-15T07:20:31;14.40;18.90
11423;DHT22;5768;51.476;7.210;2022-11-15T07:25:35;14.40;18.80
11423;DHT22;5768;51.476;7.210;2022-11-15T07:30:37;14.50;18.70
11423;DHT22;5768;51.476;7.210;2022-11-15T07:35:39;14.30;18.60
11423;DHT22;5768;51.476;7.210;2022-11-15T07:40:44;14.20;18.50
11423;DHT22;5768;51.476;7.210;2022-11-15T07:45:47;14.20;18.50
11423;DHT22;5768;51.476;7.210;2022-11-15T07:50:49;14.00;18.60
11423;DHT22;5768;51.476;7.210;2022-11-15T07:55:53;14.00;18.60
11423;DHT22;5768;51.476;7.210;2022-11-15T08:00:55;13.90;18.60
11423;DHT22;5768;51.476;7.210;2022-11-15T08:05:58;13.80;18.60
11423;DHT22;5768;51.476;7.210;2022-11-15T08:11:02;13.80;18.60
11423;DHT22;5768;51.476;7.210;2022-11-15T08:16:05;13.90;18.50
11423;DHT22;5768;51.476;7.210;2022-11-15T08:21:09;14.10;18.20
11423;DHT22;5768;51.476;7.210;2022-11-15T08:26:14;14.20;18.10
11423;DHT22;5768;51.476;7.210;2022-11-15T08:31:18;14.30;17.80
11423;DHT22;5768;51.476;7.210;2022-11-15T08:36:20;14.30;17.80
11423;DHT22;5768;51.476;7.210;2022-11-15T08:41:26;14.50;17.50
11423;DHT22;5768;51.476;7.210;2022-11-15T08:46:32;14.60;17.50
11423;DHT22;5768;51.476;7.210;2022-11-15T08:51:34;14.70;17.30
11423;DHT22;5768;51.476;7.210;2022-11-15T08:56:38;14.60;17.30
11423;DHT22;5768;51.476;7.210;2022-11-15T09:01:40;14.60;17.10
11423;DHT22;5768;51.476;7.210;2022-11-15T09:06:42;14.70;17.00
11423;DHT22;5768;51.476;7.210;2022-11-15T09:11:46;14.70;16.80
11423;DHT22;5768;51.476;7.210;2022-11-15T09:16:48;14.80;16.60
11423;DHT22;5768;51.476;7.210;2022-11-15T09:21:50;14.80;16.60
11423;DHT22;5768;51.476;7.210;2022-11-15T09:26:54;14.80;16.40
11423;DHT22;5768;51.476;7.210;2022-11-15T09:31:56;14.90;16.20
11423;DHT22;5768;51.476;7.210;2022-11-15T09:36:58;14.80;16.20
11423;DHT22;5768;51.476;7.210;2022-11-15T09:42:26;14.80;16.10
11423;DHT22;5768;51.476;7.210;2022-11-15T09:48:08;14.60;15.90
11423;DHT22;5768;51.476;7.210;2022-11-15T09:53:26;15.10;15.90
11423;DHT22;5768;51.476;7.210;2022-11-15T09:58:39;15.10;15.90
11423;DHT22;5768;51.476;7.210;2022-11-15T10:03:48;15.50;15.70
11423;DHT22;5768;51.476;7.210;2022-11-15T10:08:55;15.20;15.40
11423;DHT22;5768;51.476;7.210;2022-11-15T10:14:12;15.00;15.30
11423;DHT22;5768;51.476;7.210;2022-11-15T10:19:26;15.00;15.20
11423;DHT22;5768;51.476;7.210;2022-11-15T10:24:35;15.10;15.00
11423;DHT22;5768;51.476;7.210;2022-11-15T10:29:49;15.10;14.70
11423;DHT22;5768;51.476;7.210;2022-11-15T10:34:52;15.10;14.60
11423;DHT22;5768;51.476;7.210;2022-11-15T10:40:03;15.20;14.70
11423;DHT22;5768;51.476;7.210;2022-11-15T10:45:24;15.20;14.80
11423;DHT22;5768;51.476;7.210;2022-11-15T10:50:32;15.20;14.80
11423;DHT22;5768;51.476;7.210;2022-11-15T10:55:35;15.20;14.80
11423;DHT22;5768;51.476;7.210;2022-11-15T11:00:52;15.50;14.60
11423;DHT22;5768;51.476;7.210;2022-11-15T11:06:04;15.70;14.60
11423;DHT22;5768;51.476;7.210;2022-11-15T11:11:09;15.70;14.40
11423;DHT22;5768;51.476;7.210;2022-11-15T11:16:36;15.90;14.30
11423;DHT22;5768;51.476;7.210;2022-11-15T11:21:51;16.20;14.00
11423;DHT22;5768;51.476;7.210;2022-11-15T11:27:14;16.10;13.80
11423;DHT22;5768;51.476;7.210;2022-11-15T11:32:34;16.50;13.70
11423;DHT22;5768;51.476;7.210;2022-11-15T11:37:51;16.80;13.60
11423;DHT22;5768;51.476;7.210;2022-11-15T11:42:59;17.10;13.30
11423;DHT22;5768;51.476;7.210;2022-11-15T11:48:13;17.30;13.00
11423;DHT22;5768;51.476;7.210;2022-11-15T11:53:25;17.50;12.80
11423;DHT22;5768;51.476;7.210;2022-11-15T11:58:40;17.50;12.60
11423;DHT22;5768;51.476;7.210;2022-11-15T12:03:50;17.70;12.20
11423;DHT22;5768;51.476;7.210;2022-11-15T12:09:02;17.70;12.30
11423;DHT22;5768;51.476;7.210;2022-11-15T12:14:13;17.90;11.90
11423;DHT22;5768;51.476;7.210;2022-11-15T12:19:26;18.20;11.80
11423;DHT22;5768;51.476;7.210;2022-11-15T12:24:34;18.40;11.60
11423;DHT22;5768;51.476;7.210;2022-11-15T12:29:43;18.50;11.60
11423;DHT22;5768;51.476;7.210;2022-11-15T12:34:51;18.60;11.60
11423;DHT22;5768;51.476;7.210;2022-11-15T12:45:35;19.20;11.30
11423;DHT22;5768;51.476;7.210;2022-11-15T12:50:55;19.50;11.30
11423;DHT22;5768;51.476;7.210;2022-11-15T12:56:22;19.10;11.40
11423;DHT22;5768;51.476;7.210;2022-11-15T13:13:00;19.80;11.30
11423;DHT22;5768;51.476;7.210;2022-11-15T13:23:56;20.30;11.00
11423;DHT22;5768;51.476;7.210;2022-11-15T13:28:59;20.80;11.00
11423;DHT22;5768;51.476;7.210;2022-11-15T13:34:12;21.20;10.90
11423;DHT22;5768;51.476;7.210;2022-11-15T13:39:29;21.40;10.80
11423;DHT22;5768;51.476;7.210;2022-11-15T13:44:33;21.30;10.90
11423;DHT22;5768;51.476;7.210;2022-11-15T13:49:35;20.80;11.00
11423;DHT22;5768;51.476;7.210;2022-11-15T13:54:43;20.50;11.20
11423;DHT22;5768;51.476;7.210;2022-11-15T13:59:49;19.90;11.30
11423;DHT22;5768;51.476;7.210;2022-11-15T14:04:56;19.40;11.50
11423;DHT22;5768;51.476;7.210;2022-11-15T14:10:25;19.60;11.60
11423;DHT22;5768;51.476;7.210;2022-11-15T14:15:32;19.40;11.70
11423;DHT22;5768;51.476;7.210;2022-11-15T14:20:37;19.10;11.80
11423;DHT22;5768;51.476;7.210;2022-11-15T14:25:52;18.50;12.20
11423;DHT22;5768;51.476;7.210;2022-11-15T14:30:56;18.30;12.30
11423;DHT22;5768;51.476;7.210;2022-11-15T14:36:03;18.20;12.50
11423;DHT22;5768;51.476;7.210;2022-11-15T14:41:18;18.10;12.50
11423;DHT22;5768;51.476;7.210;2022-11-15T14:46:21;17.90;12.70
11423;DHT22;5768;51.476;7.210;2022-11-15T14:51:23;17.70;12.80
11423;DHT22;5768;51.476;7.210;2022-11-15T14:56:27;17.50;13.00
11423;DHT22;5768;51.476;7.210;2022-11-15T15:01:31;17.40;13.00
11423;DHT22;5768;51.476;7.210;2022-11-15T15:06:33;17.20;13.20
11423;DHT22;5768;51.476;7.210;2022-11-15T15:11:37;17.20;13.20
11423;DHT22;5768;51.476;7.210;2022-11-15T15:16:39;16.90;13.30
11423;DHT22;5768;51.476;7.210;2022-11-15T15:21:41;16.70;13.40
11423;DHT22;5768;51.476;7.210;2022-11-15T15:26:44;16.70;13.50
11423;DHT22;5768;51.476;7.210;2022-11-15T15:31:47;16.50;13.60
11423;DHT22;5768;51.476;7.210;2022-11-15T15:36:49;16.50;13.70
11423;DHT22;5768;51.476;7.210;2022-11-15T15:41:52;16.20;13.80
11423;DHT22;5768;51.476;7.210;2022-11-15T15:46:54;16.10;13.90
11423;DHT22;5768;51.476;7.210;2022-11-15T15:51:58;16.00;13.90
11423;DHT22;5768;51.476;7.210;2022-11-15T15:57:01;16.00;14.00
11423;DHT22;5768;51.476;7.210;2022-11-15T16:02:04;15.90;14.10
11423;DHT22;5768;51.476;7.210;2022-11-15T16:07:08;15.90;14.10
11423;DHT22;5768;51.476;7.210;2022-11-15T16:12:19;15.80;14.20
11423;DHT22;5768;51.476;7.210;2022-11-15T16:17:22;15.70;14.30
11423;DHT22;5768;51.476;7.210;2022-11-15T16:22:26;15.70;14.40
11423;DHT22;5768;51.476;7.210;2022-11-15T16:27:30;15.70;14.40
11423;DHT22;5768;51.476;7.210;2022-11-15T16:32:33;15.60;14.50
11423;DHT22;5768;51.476;7.210;2022-11-15T16:37:35;15.60;14.60
11423;DHT22;5768;51.476;7.210;2022-11-15T16:42:39;15.60;14.60
11423;DHT22;5768;51.476;7.210;2022-11-15T16:47:41;15.60;14.70
11423;DHT22;5768;51.476;7.210;2022-11-15T16:52:43;15.50;14.80
11423;DHT22;5768;51.476;7.210;2022-11-15T16:57:46;15.50;14.90
11423;DHT22;5768;51.476;7.210;2022-11-15T17:02:50;15.40;14.80
11423;DHT22;5768;51.476;7.210;2022-11-15T17:07:53;15.40;14.90
11423;DHT22;5768;51.476;7.210;2022-11-15T17:12:57;15.40;14.90
11423;DHT22;5768;51.476;7.210;2022-11-15T17:17:59;15.40;14.90
11423;DHT22;5768;51.476;7.210;2022-11-15T17:23:01;15.40;14.90
11423;DHT22;5768;51.476;7.210;2022-11-15T17:28:05;15.40;14.90
11423;DHT22;5768;51.476;7.210;2022-11-15T17:33:07;15.40;15.00
11423;DHT22;5768;51.476;7.210;2022-11-15T17:38:09;15.30;15.00
11423;DHT22;5768;51.476;7.210;2022-11-15T17:43:13;15.30;15.00
11423;DHT22;5768;51.476;7.210;2022-11-15T17:48:16;15.30;15.10
11423;DHT22;5768;51.476;7.210;2022-11-15T17:53:18;15.30;15.00
11423;DHT22;5768;51.476;7.210;2022-11-15T17:58:21;15.40;15.00
11423;DHT22;5768;51.476;7.210;2022-11-15T18:03:24;15.40;15.00
11423;DHT22;5768;51.476;7.210;2022-11-15T18:08:26;15.10;15.00
11423;DHT22;5768;51.476;7.210;2022-11-15T18:13:29;15.30;15.00
11423;DHT22;5768;51.476;7.210;2022-11-15T18:18:33;15.40;15.10
11423;DHT22;5768;51.476;7.210;2022-11-15T18:23:36;15.40;15.00
11423;DHT22;5768;51.476;7.210;2022-11-15T18:28:42;15.40;15.10
11423;DHT22;5768;51.476;7.210;2022-11-15T18:33:46;15.40;15.10
11423;DHT22;5768;51.476;7.210;2022-11-15T18:38:53;15.50;15.10
11423;DHT22;5768;51.476;7.210;2022-11-15T18:43:58;15.50;15.20
11423;DHT22;5768;51.476;7.210;2022-11-15T18:49:01;15.40;15.30
11423;DHT22;5768;51.476;7.210;2022-11-15T18:54:04;15.40;15.40
11423;DHT22;5768;51.476;7.210;2022-11-15T18:59:07;15.40;15.40
11423;DHT22;5768;51.476;7.210;2022-11-15T19:04:11;15.50;15.50
11423;DHT22;5768;51.476;7.210;2022-11-15T19:09:18;15.40;15.60
11423;DHT22;5768;51.476;7.210;2022-11-15T19:14:21;15.40;15.70
11423;DHT22;5768;51.476;7.210;2022-11-15T19:19:26;15.40;15.70
11423;DHT22;5768;51.476;7.210;2022-11-15T19:24:29;15.30;15.80
11423;DHT22;5768;51.476;7.210;2022-11-15T19:29:32;15.30;15.90
11423;DHT22;5768;51.476;7.210;2022-11-15T19:34:34;15.20;16.00
11423;DHT22;5768;51.476;7.210;2022-11-15T19:39:37;15.20;16.10
11423;DHT22;5768;51.476;7.210;2022-11-15T19:44:40;15.20;16.10
11423;DHT22;5768;51.476;7.210;2022-11-15T19:49:42;15.20;16.20
11423;DHT22;5768;51.476;7.210;2022-11-15T19:54:46;15.10;16.20
11423;DHT22;5768;51.476;7.210;2022-11-15T19:59:49;15.10;16.20
11423;DHT22;5768;51.476;7.210;2022-11-15T20:04:51;15.20;16.30
11423;DHT22;5768;51.476;7.210;2022-11-15T20:09:54;15.10;16.40
11423;DHT22;5768;51.476;7.210;2022-11-15T20:14:57;15.10;16.60
11423;DHT22;5768;51.476;7.210;2022-11-15T20:19:59;15.10;16.70
11423;DHT22;5768;51.476;7.210;2022-11-15T20:25:02;15.10;16.80
11423;DHT22;5768;51.476;7.210;2022-11-15T20:30:08;15.10;16.80
11423;DHT22;5768;51.476;7.210;2022-11-15T20:35:11;15.10;16.90
11423;DHT22;5768;51.476;7.210;2022-11-15T20:40:14;15.20;17.00
11423;DHT22;5768;51.476;7.210;2022-11-15T20:45:17;15.00;17.10
11423;DHT22;5768;51.476;7.210;2022-11-15T20:50:20;15.10;17.20
11423;DHT22;5768;51.476;7.210;2022-11-15T20:55:22;15.00;17.20
11423;DHT22;5768;51.476;7.210;2022-11-15T21:00:26;15.00;17.30
11423;DHT22;5768;51.476;7.210;2022-11-15T21:05:28;15.00;17.30
11423;DHT22;5768;51.476;7.210;2022-11-15T21:10:31;14.90;17.30
11423;DHT22;5768;51.476;7.210;2022-11-15T21:15:54;14.90;17.40
11423;DHT22;5768;51.476;7.210;2022-11-15T21:21:01;14.90;17.40
11423;DHT22;5768;51.476;7.210;2022-11-15T21:26:05;14.80;17.50
11423;DHT22;5768;51.476;7.210;2022-11-15T21:31:08;14.80;17.50
11423;DHT22;5768;51.476;7.210;2022-11-15T21:36:10;14.80;17.60
11423;DHT22;5768;51.476;7.210;2022-11-15T21:41:13;14.80;17.60
11423;DHT22;5768;51.476;7.210;2022-11-15T21:46:17;14.80;17.50
11423;DHT22;5768;51.476;7.210;2022-11-15T21:51:19;14.80;17.60
11423;DHT22;5768;51.476;7.210;2022-11-15T21:56:22;14.90;17.60
11423;DHT22;5768;51.476;7.210;2022-11-15T22:01:27;14.80;17.60
11423;DHT22;5768;51.476;7.210;2022-11-15T22:06:47;14.80;17.60
11423;DHT22;5768;51.476;7.210;2022-11-15T22:11:49;14.70;17.70
11423;DHT22;5768;51.476;7.210;2022-11-15T22:16:56;14.80;17.70
11423;DHT22;5768;51.476;7.210;2022-11-15T22:21:58;14.70;17.80
11423;DHT22;5768;51.476;7.210;2022-11-15T22:27:00;14.80;17.90
11423;DHT22;5768;51.476;7.210;2022-11-15T22:32:04;14.70;17.90
11423;DHT22;5768;51.476;7.210;2022-11-15T22:37:06;14.70;18.10
11423;DHT22;5768;51.476;7.210;2022-11-15T22:42:08;14.60;18.10
11423;DHT22;5768;51.476;7.210;2022-11-15T22:47:12;14.60;18.20
11423;DHT22;5768;51.476;7.210;2022-11-15T22:52:14;14.60;18.20
11423;DHT22;5768;51.476;7.210;2022-11-15T22:57:16;14.60;18.20
11423;DHT22;5768;51.476;7.210;2022-11-15T23:02:20;14.60;18.20
11423;DHT22;5768;51.476;7.210;2022-11-15T23:07:23;14.60;18.20
11423;DHT22;5768;51.476;7.210;2022-11-15T23:12:26;14.60;18.20
11423;DHT22;5768;51.476;7.210;2022-11-15T23:17:47;14.60;18.30
11423;DHT22;5768;51.476;7.210;2022-11-15T23:22:50;14.60;18.40
11423;DHT22;5768;51.476;7.210;2022-11-15T23:27:52;14.60;18.50
11423;DHT22;5768;51.476;7.210;2022-11-15T23:32:55;14.50;18.50
11423;DHT22;5768;51.476;7.210;2022-11-15T23:38:15;14.60;18.60
11423;DHT22;5768;51.476;7.210;2022-11-15T23:43:18;14.50;18.70
11423;DHT22;5768;51.476;7.210;2022-11-15T23:48:22;14.50;18.80
11423;DHT22;5768;51.476;7.210;2022-11-15T23:53:24;14.50;18.90
11423;DHT22;5768;51.476;7.210;2022-11-15T23:58:27;14.50;19.00
